Главная страница
METAR-TAF:

METAR-TAF

Аэропорты :

Linden, Нью-Джерси, США

широта: 40-37-03N, долгота: 074-14-40W, высота над уровнем моря: 7 м

Текущие метеонаблюдения

Эта сводка был подготовлена 30 минут назад, в 22:15 UTC
Штиль
Температура 6°C
Влажность 61%
Давление 1026 hPa
Видимость: 16.1 км
Сплошная облачность на высоте 4000 фута

METAR: KLDJ 182215Z AUTO 00000KT 10SM OVC040 06/M01 A3029 RMK AO2 T00601008

Время: 17:45 (22:45 UTC)


TAF: отсутствует

Метеонаблюдения и прогнозы для более 4000 аэропортов (сводки METAR и TAF).

Имеющиеся станции представлены на карте желтыми и красными точками.

Чтобы увидеть название станции, наведите на нее мышь.

Затем щелкните, чтобы увидеть метеонаблюдения и метеопрогнозы.

Управление картой: чтобы увеличить масштаб, щелкните зеленые кнопки с черным крестиком; чтобы уменьшить масштаб, щелкните зеленую кнопку с тире; для просмотра соседних карт щелкайте зеленые стрелки.


METAR-TAF: